Time;durP1;ratioP1;P1;durP2;ratioP2;P2;SDS_P1;SDS_P2;PMS_P1;PMS_P2;Temp;Humidity;BMP_temperature;BMP_pressure;BME280_temperature;BME280_humidity;BME280_pressure;Samples;Min_cycle;Max_cycle;Signal;HPM_P1;HPM_P2
2023/11/06 00:02:06;;;;;;;13.07;7.22;;;358.60;2329.60;;;;;;5062405;28;20032;-76
2023/11/06 00:04:32;;;;;;;18.83;8.90;;;358.60;2329.60;;;;;;5060985;28;20425;-75
2023/11/06 00:06:58;;;;;;;14.27;6.32;;;358.60;2329.60;;;;;;5061997;28;20116;-76
2023/11/06 00:09:24;;;;;;;10.15;4.53;;;358.70;2329.60;;;;;;5058502;28;20079;-76
2023/11/06 00:11:50;;;;;;;15.43;7.07;;;358.70;2329.60;;;;;;5060159;28;20021;-76
2023/11/06 00:14:16;;;;;;;10.07;4.18;;;358.70;2329.60;;;;;;5059478;28;20112;-76
2023/11/06 00:16:43;;;;;;;8.98;4.03;;;358.70;2329.60;;;;;;5063732;28;20116;-77
2023/11/06 00:19:08;;;;;;;10.32;4.22;;;358.70;2329.60;;;;;;5068063;28;20053;-75
2023/11/06 00:21:36;;;;;;;9.60;4.13;;;358.70;2329.60;;;;;;5039890;28;20025;-76
2023/11/06 00:24:02;;;;;;;7.55;4.43;;;358.80;2329.60;;;;;;5066628;28;20055;-76
2023/11/06 00:26:27;;;;;;;5.43;3.33;;;358.80;2329.60;;;;;;5062525;28;20068;-77
2023/11/06 00:28:53;;;;;;;12.77;3.78;;;358.80;2329.60;;;;;;5057396;28;20490;-77
2023/11/06 00:31:21;;;;;;;12.82;3.65;;;358.80;2329.60;;;;;;5059211;28;20032;-75
2023/11/06 00:33:47;;;;;;;6.57;3.20;;;358.70;2329.60;;;;;;5064811;28;20473;-76
2023/11/06 00:36:22;;;;;;;7.45;3.63;;;358.80;2329.60;;;;;;5047282;28;20036;-76
2023/11/06 00:38:49;;;;;;;9.13;3.85;;;358.80;2329.60;;;;;;5046102;28;20056;-76
2023/11/06 00:41:15;;;;;;;8.57;3.58;;;358.80;2329.60;;;;;;5061730;28;20021;-76
2023/11/06 00:43:42;;;;;;;7.43;3.13;;;358.80;2329.60;;;;;;5048577;28;20033;-76
2023/11/06 00:46:08;;;;;;;11.82;4.15;;;358.80;2329.60;;;;;;5062299;28;20374;-76
2023/11/06 00:48:34;;;;;;;8.95;3.40;;;358.80;2329.60;;;;;;5042996;28;20040;-76
2023/11/06 00:51:00;;;;;;;13.05;3.97;;;358.80;2329.60;;;;;;5066453;28;20025;-76
2023/11/06 00:53:26;;;;;;;8.25;3.33;;;358.80;2329.60;;;;;;5043243;28;20024;-76
2023/11/06 00:55:52;;;;;;;15.27;4.10;;;358.80;2329.60;;;;;;5060004;28;20024;-76
2023/11/06 00:58:18;;;;;;;5.53;3.35;;;358.80;2329.60;;;;;;5063167;28;20489;-75
2023/11/06 01:00:44;;;;;;;11.77;3.95;;;358.80;2329.60;;;;;;5060049;28;20056;-76
2023/11/06 01:03:12;;;;;;;8.95;4.10;;;358.80;2329.60;;;;;;5047189;28;20075;-75
2023/11/06 01:05:38;;;;;;;9.02;3.83;;;358.80;2329.60;;;;;;5041072;28;20051;-76
2023/11/06 01:08:05;;;;;;;10.40;4.38;;;358.80;2329.60;;;;;;5063177;28;20075;-76
2023/11/06 01:10:35;;;;;;;6.30;4.22;;;358.80;2329.60;;;;;;5056460;28;20419;-76
2023/11/06 01:13:02;;;;;;;11.10;3.72;;;358.80;2329.60;;;;;;5059651;28;20024;-75
2023/11/06 01:15:29;;;;;;;11.25;3.10;;;358.80;2329.60;;;;;;5070371;28;20020;-76
2023/11/06 01:17:55;;;;;;;10.95;3.88;;;358.80;2329.60;;;;;;5056174;28;20051;-75
2023/11/06 01:20:24;;;;;;;7.88;3.30;;;358.80;2329.60;;;;;;5040873;28;20037;-76
2023/11/06 01:22:50;;;;;;;17.98;4.18;;;358.80;2329.60;;;;;;5064778;28;20017;-76
2023/11/06 01:25:16;;;;;;;5.78;3.65;;;358.80;2329.60;;;;;;5049577;28;20047;-76
2023/11/06 01:27:41;;;;;;;10.82;3.40;;;358.90;2329.60;;;;;;5063161;28;20024;-76
2023/11/06 01:30:09;;;;;;;11.68;4.30;;;358.90;2329.60;;;;;;5062174;28;20120;-76
2023/11/06 01:32:35;;;;;;;10.13;4.53;;;358.90;2329.60;;;;;;5065984;28;20052;-76
2023/11/06 01:35:01;;;;;;;11.25;3.75;;;358.90;2329.60;;;;;;5060569;28;20445;-76
2023/11/06 01:37:27;;;;;;;7.07;3.78;;;358.90;2329.60;;;;;;5063724;28;20388;-77
2023/11/06 01:39:53;;;;;;;6.25;3.50;;;358.90;2329.60;;;;;;5067453;28;20021;-76
2023/11/06 01:42:18;;;;;;;10.05;4.00;;;358.90;2329.60;;;;;;5065236;28;20489;-76
2023/11/06 01:44:44;;;;;;;6.82;3.33;;;358.90;2329.60;;;;;;5066067;28;20028;-77
2023/11/06 01:47:10;;;;;;;10.57;4.20;;;358.90;2329.60;;;;;;5047559;28;20028;-75
2023/11/06 01:49:37;;;;;;;7.38;4.03;;;359.00;2329.60;;;;;;5048331;28;20055;-75
2023/11/06 01:52:11;;;;;;;8.15;2.97;;;359.00;2329.60;;;;;;5058196;28;20024;-76
2023/11/06 01:54:38;;;;;;;6.05;3.30;;;359.00;2329.60;;;;;;5068212;28;20016;-76
2023/11/06 01:57:05;;;;;;;10.25;3.58;;;359.00;2329.60;;;;;;5055123;28;20064;-76
2023/11/06 01:59:31;;;;;;;5.82;2.92;;;359.00;2329.60;;;;;;5071769;28;20044;-76
2023/11/06 02:02:01;;;;;;;8.23;3.58;;;358.90;2329.60;;;;;;5056855;28;20521;-76
2023/11/06 02:04:29;;;;;;;9.95;4.28;;;358.90;2329.60;;;;;;5053386;28;20021;-77
2023/11/06 02:06:55;;;;;;;8.52;3.60;;;358.80;2329.60;;;;;;5053117;28;20036;-76
2023/11/06 02:09:21;;;;;;;13.88;3.78;;;358.80;2329.60;;;;;;5053839;28;20028;-77
2023/11/06 02:11:47;;;;;;;12.20;4.28;;;358.80;2329.60;;;;;;5075248;28;20030;-76
2023/11/06 02:14:13;;;;;;;6.65;3.10;;;358.80;2329.60;;;;;;5093314;28;20452;-78
2023/11/06 02:16:39;;;;;;;9.25;3.40;;;358.80;2329.60;;;;;;5093187;28;20103;-76
2023/11/06 02:19:07;;;;;;;6.70;3.75;;;358.80;2329.60;;;;;;5075042;28;20052;-77
2023/11/06 02:21:34;;;;;;;6.13;2.97;;;358.90;2329.60;;;;;;5093353;28;20077;-76
2023/11/06 02:24:00;;;;;;;7.22;3.08;;;358.90;2329.60;;;;;;5093215;28;20027;-76
2023/11/06 02:26:26;;;;;;;10.13;4.35;;;358.90;2329.60;;;;;;5093067;28;20021;-77
2023/11/06 02:28:52;;;;;;;10.85;3.50;;;358.90;2329.60;;;;;;5075074;28;20024;-76
2023/11/06 02:31:18;;;;;;;11.45;3.72;;;358.90;2329.60;;;;;;5093024;28;20122;-76
2023/11/06 02:33:44;;;;;;;7.72;2.83;;;358.90;2329.60;;;;;;5093241;28;20169;-75
2023/11/06 02:36:10;;;;;;;9.13;3.03;;;358.90;2329.60;;;;;;5075168;28;20077;-75
2023/11/06 02:38:36;;;;;;;9.10;3.03;;;358.90;2329.60;;;;;;5074841;28;20107;-76
2023/11/06 02:41:02;;;;;;;11.82;3.13;;;358.90;2329.60;;;;;;5093087;28;20024;-76
2023/11/06 02:43:28;;;;;;;7.70;2.95;;;358.90;2329.60;;;;;;5092954;28;20144;-76
2023/11/06 02:45:55;;;;;;;7.97;3.30;;;358.90;2329.60;;;;;;5097100;28;20017;-75
2023/11/06 02:48:22;;;;;;;7.07;3.20;;;358.90;2329.60;;;;;;5078842;28;20094;-76
2023/11/06 02:50:48;;;;;;;7.63;3.38;;;358.90;2329.60;;;;;;5097255;28;20036;-76
2023/11/06 02:53:14;;;;;;;8.48;3.47;;;358.80;2329.60;;;;;;5078828;28;20031;-76
2023/11/06 02:55:40;;;;;;;9.07;3.40;;;358.80;2329.60;;;;;;5078887;28;20492;-76
2023/11/06 02:58:05;;;;;;;12.88;4.63;;;358.80;2329.60;;;;;;5078856;28;20032;-75
2023/11/06 03:00:31;;;;;;;11.02;3.45;;;358.80;2329.60;;;;;;5097123;28;20508;-77
2023/11/06 03:02:57;;;;;;;9.95;3.65;;;358.80;2329.60;;;;;;5078703;28;20130;-77
2023/11/06 03:05:23;;;;;;;9.63;3.13;;;358.80;2329.60;;;;;;5097003;28;20016;-77
2023/11/06 03:07:49;;;;;;;7.00;3.40;;;358.80;2329.60;;;;;;5078636;28;20024;-77
2023/11/06 03:10:14;;;;;;;7.10;3.53;;;358.90;2329.60;;;;;;5096933;28;20020;-77
2023/11/06 03:12:41;;;;;;;9.48;3.75;;;359.00;2329.60;;;;;;5096865;28;20473;-77
2023/11/06 03:15:08;;;;;;;7.63;3.33;;;358.90;2329.60;;;;;;5096659;28;20077;-77
2023/11/06 03:17:33;;;;;;;14.77;5.57;;;358.80;2329.60;;;;;;5078119;28;20032;-78
2023/11/06 03:19:59;;;;;;;14.80;4.50;;;359.00;2329.60;;;;;;5078424;28;20496;-77
2023/11/06 03:22:25;;;;;;;10.60;4.80;;;358.90;2329.60;;;;;;5078449;28;20024;-77
2023/11/06 03:24:51;;;;;;;11.73;4.80;;;359.00;2329.60;;;;;;5096231;28;20016;-77
2023/11/06 03:27:16;;;;;;;10.85;4.47;;;359.00;2329.60;;;;;;5078162;28;20032;-77
2023/11/06 03:29:43;;;;;;;12.73;3.67;;;359.00;2329.60;;;;;;5056475;28;20047;-77
2023/11/06 03:32:08;;;;;;;7.00;2.85;;;359.00;2329.60;;;;;;5041551;28;20535;-77
2023/11/06 03:34:34;;;;;;;9.32;3.75;;;359.00;2329.60;;;;;;5045613;28;20032;-77
2023/11/06 03:37:00;;;;;;;9.30;3.17;;;359.00;2329.60;;;;;;5048082;28;20470;-77
2023/11/06 03:39:26;;;;;;;18.98;8.68;;;359.00;2329.60;;;;;;5061668;28;20017;-78
2023/11/06 03:41:51;;;;;;;15.98;7.30;;;358.90;2329.60;;;;;;5060990;28;20457;-77
2023/11/06 03:44:17;;;;;;;21.90;8.90;;;358.90;2329.60;;;;;;5065579;28;20064;-77
2023/11/06 03:46:43;;;;;;;12.50;3.90;;;358.90;2329.60;;;;;;5061065;28;20473;-78
2023/11/06 03:49:09;;;;;;;9.43;3.47;;;358.90;2329.60;;;;;;5048341;28;20040;-76
2023/11/06 03:51:35;;;;;;;7.10;3.17;;;358.90;2329.60;;;;;;5069331;28;20024;-77
2023/11/06 03:54:01;;;;;;;9.77;4.47;;;358.80;2329.60;;;;;;5044343;28;20033;-77
2023/11/06 03:56:27;;;;;;;22.88;8.30;;;358.80;2329.60;;;;;;5044542;28;20024;-77
2023/11/06 03:58:52;;;;;;;17.13;6.63;;;358.80;2329.60;;;;;;5054059;28;20028;-77
2023/11/06 04:01:18;;;;;;;38.40;13.63;;;358.70;2329.60;;;;;;5075485;28;20043;-77
2023/11/06 04:03:44;;;;;;;42.45;13.90;;;358.80;2329.60;;;;;;5048095;28;20049;-77
2023/11/06 04:06:10;;;;;;;15.30;5.35;;;358.80;2329.60;;;;;;5052787;28;20056;-77
2023/11/06 04:08:35;;;;;;;17.15;5.22;;;358.60;2329.60;;;;;;5050149;28;20028;-77
2023/11/06 04:11:02;;;;;;;25.73;10.35;;;358.60;2329.60;;;;;;5048265;28;20089;-76
2023/11/06 04:13:28;;;;;;;25.45;8.10;;;358.70;2329.60;;;;;;5066239;28;20517;-77
2023/11/06 04:15:54;;;;;;;16.40;4.65;;;358.60;2329.60;;;;;;5046836;28;20025;-77
2023/11/06 04:18:20;;;;;;;15.57;4.38;;;358.60;2329.60;;;;;;5062024;28;20055;-77
2023/11/06 04:20:46;;;;;;;127.03;39.75;;;358.60;2329.60;;;;;;5059399;28;20117;-77
2023/11/06 04:23:12;;;;;;;49.92;15.13;;;358.60;2329.60;;;;;;5050528;28;20040;-78
2023/11/06 04:25:38;;;;;;;78.22;25.00;;;358.50;2329.60;;;;;;5063536;28;20629;-77
2023/11/06 04:28:05;;;;;;;18.27;5.95;;;358.60;2329.60;;;;;;5050739;28;20036;-77
2023/11/06 04:30:32;;;;;;;39.30;11.63;;;358.70;2329.60;;;;;;5048222;28;20033;-77
2023/11/06 04:32:59;;;;;;;77.97;21.30;;;358.80;2329.60;;;;;;5044207;28;20514;-77
2023/11/06 04:35:25;;;;;;;32.65;11.15;;;358.70;2329.60;;;;;;5064242;28;20085;-77
2023/11/06 04:37:50;;;;;;;14.18;4.43;;;358.80;2329.60;;;;;;5046847;28;20033;-78
2023/11/06 04:40:19;;;;;;;55.30;16.00;;;358.80;2329.60;;;;;;5043904;28;20402;-76
2023/11/06 04:42:45;;;;;;;60.55;17.98;;;358.80;2329.60;;;;;;5041388;28;20036;-77
2023/11/06 04:45:11;;;;;;;52.63;17.52;;;358.90;2329.60;;;;;;5046945;28;20021;-77
2023/11/06 04:47:37;;;;;;;95.00;30.92;;;358.90;2329.60;;;;;;5051536;28;20055;-77
2023/11/06 04:50:03;;;;;;;93.38;29.77;;;359.00;2329.60;;;;;;5069058;28;20032;-77
2023/11/06 04:52:29;;;;;;;45.88;17.73;;;359.00;2329.60;;;;;;5056730;28;20090;-77
2023/11/06 04:54:55;;;;;;;23.85;8.98;;;359.00;2329.60;;;;;;5047208;28;20467;-77
2023/11/06 04:57:21;;;;;;;12.25;3.72;;;359.00;2329.60;;;;;;5050032;28;20052;-76
2023/11/06 04:59:47;;;;;;;25.65;9.20;;;359.00;2329.60;;;;;;5046126;28;20028;-77
2023/11/06 05:02:13;;;;;;;31.30;9.52;;;359.00;2329.60;;;;;;5063757;28;20069;-77
2023/11/06 05:04:45;;;;;;;11.73;5.57;;;359.00;2329.60;;;;;;5063848;28;20055;-77
2023/11/06 05:07:11;;;;;;;11.50;4.60;;;358.90;2329.60;;;;;;5064641;28;20024;-77
2023/11/06 05:09:37;;;;;;;13.88;5.10;;;358.80;2329.60;;;;;;5050704;28;20486;-77
2023/11/06 05:12:03;;;;;;;15.50;5.18;;;358.80;2329.60;;;;;;5057691;28;20035;-77
2023/11/06 05:14:28;;;;;;;16.85;5.47;;;358.70;2329.60;;;;;;5049078;28;20041;-77
2023/11/06 05:16:54;;;;;;;8.57;3.85;;;358.70;2329.60;;;;;;5064356;28;20048;-77
2023/11/06 05:19:20;;;;;;;10.02;3.67;;;358.70;2329.60;;;;;;5045686;28;20094;-77
2023/11/06 05:21:46;;;;;;;10.63;3.75;;;358.60;2329.60;;;;;;5042948;28;20025;-77
2023/11/06 05:24:13;;;;;;;9.27;3.28;;;358.50;2329.60;;;;;;5049659;28;20021;-77
2023/11/06 05:26:38;;;;;;;14.55;4.05;;;358.50;2329.60;;;;;;5044738;28;20033;-76
2023/11/06 05:29:05;;;;;;;22.60;10.00;;;358.50;2329.60;;;;;;5063220;28;20035;-76
2023/11/06 05:31:30;;;;;;;34.15;14.70;;;358.60;2329.60;;;;;;5058989;28;20378;-76
2023/11/06 05:33:58;;;;;;;26.20;11.43;;;358.60;2329.60;;;;;;5055541;28;20021;-76
2023/11/06 05:36:24;;;;;;;30.65;11.50;;;358.60;2329.60;;;;;;5036884;28;20031;-77
2023/11/06 05:38:51;;;;;;;16.67;8.48;;;358.60;2329.60;;;;;;5056278;28;20021;-76
2023/11/06 05:41:16;;;;;;;18.38;7.25;;;358.60;2329.60;;;;;;5059206;28;20036;-77
2023/11/06 05:43:43;;;;;;;15.63;7.18;;;358.50;2329.60;;;;;;5064607;28;20021;-76
2023/11/06 05:46:09;;;;;;;22.73;9.23;;;358.50;2329.60;;;;;;5065864;28;20060;-82
2023/11/06 05:48:35;;;;;;;14.60;7.22;;;358.50;2329.60;;;;;;5044757;28;20502;-83
2023/11/06 05:51:01;;;;;;;17.42;6.15;;;358.50;2329.60;;;;;;5057640;28;20033;-77
2023/11/06 05:53:27;;;;;;;12.85;5.47;;;358.60;2329.60;;;;;;5049513;28;20025;-80
2023/11/06 05:55:54;;;;;;;13.68;5.13;;;358.60;2329.60;;;;;;5038743;28;20051;-80
2023/11/06 05:58:20;;;;;;;9.93;4.50;;;358.60;2329.60;;;;;;5047794;28;20040;-79
2023/11/06 06:00:46;;;;;;;9.00;4.03;;;358.60;2329.60;;;;;;5055260;28;20178;-79
2023/11/06 06:03:16;;;;;;;10.88;4.45;;;358.70;2329.60;;;;;;5059902;28;20021;-88
2023/11/06 06:05:42;;;;;;;12.75;5.40;;;358.70;2329.60;;;;;;5047786;28;20032;-84
2023/11/06 06:08:13;;;;;;;14.30;4.65;;;358.60;2329.60;;;;;;5047736;28;20115;-84
2023/11/06 06:10:39;;;;;;;12.10;5.18;;;358.60;2329.60;;;;;;5040639;28;20036;-80
2023/11/06 06:13:05;;;;;;;8.35;4.35;;;358.70;2329.60;;;;;;5048030;28;20032;-80
2023/11/06 06:15:31;;;;;;;13.18;5.03;;;358.70;2329.60;;;;;;5043989;28;20020;-80
2023/11/06 06:17:56;;;;;;;14.60;5.13;;;358.80;2329.60;;;;;;5048913;28;20049;-79
2023/11/06 06:20:22;;;;;;;13.05;5.88;;;358.80;2329.60;;;;;;5043826;28;20036;-78
2023/11/06 06:22:48;;;;;;;14.15;5.80;;;358.80;2329.60;;;;;;5059852;28;20098;-80
2023/11/06 06:25:15;;;;;;;11.35;6.18;;;358.80;2329.60;;;;;;5060231;28;20018;-79
2023/11/06 06:27:41;;;;;;;11.65;5.18;;;358.80;2329.60;;;;;;5063632;28;20147;-80
2023/11/06 06:30:08;;;;;;;15.40;6.28;;;359.00;2329.60;;;;;;5046491;28;20021;-83
2023/11/06 06:32:34;;;;;;;12.05;6.00;;;359.00;2329.60;;;;;;5064001;28;20020;-79
2023/11/06 06:35:02;;;;;;;11.50;5.97;;;359.30;2329.60;;;;;;5056865;28;20509;-74
2023/11/06 06:37:28;;;;;;;13.43;4.35;;;384.00;2329.60;;;;;;5061880;28;20247;-76
2023/11/06 06:39:54;;;;;;;12.88;3.55;;;384.20;2329.60;;;;;;5068597;28;20539;-76
2023/11/06 06:42:19;;;;;;;12.02;4.47;;;384.30;2329.60;;;;;;5052956;28;20029;-78
2023/11/06 06:44:45;;;;;;;10.60;3.50;;;384.40;2329.60;;;;;;5057576;28;20021;-81
2023/11/06 06:47:11;;;;;;;11.25;4.18;;;384.40;2329.60;;;;;;5045587;28;20056;-80
2023/11/06 06:49:40;;;;;;;15.43;4.13;;;384.40;2329.60;;;;;;5043630;28;20017;-79
2023/11/06 06:52:10;;;;;;;6.68;3.35;;;384.40;2329.60;;;;;;5061626;28;20057;-79
2023/11/06 06:54:36;;;;;;;13.90;4.63;;;384.50;2329.60;;;;;;5063324;28;20034;-78
2023/11/06 06:57:03;;;;;;;8.85;3.50;;;384.50;2329.60;;;;;;5040849;28;20037;-78
2023/11/06 06:59:29;;;;;;;8.73;3.47;;;384.60;2329.60;;;;;;5060514;28;20074;-77
2023/11/06 07:01:56;;;;;;;6.72;3.08;;;384.70;2329.60;;;;;;5064439;28;20032;-79
2023/11/06 07:04:22;;;;;;;5.57;2.97;;;384.70;2329.60;;;;;;5059529;28;20486;-79
2023/11/06 07:06:47;;;;;;;7.88;3.00;;;384.90;2329.60;;;;;;5045734;28;20040;-79
2023/11/06 07:09:13;;;;;;;7.32;3.63;;;409.60;2355.20;;;;;;5037936;28;20075;-80
2023/11/06 07:11:39;;;;;;;9.20;3.63;;;409.70;2355.20;;;;;;5058756;28;20021;-80
2023/11/06 07:14:05;;;;;;;12.05;4.13;;;409.70;2355.20;;;;;;5051534;28;20021;-80
2023/11/06 07:16:31;;;;;;;10.13;3.50;;;409.80;2355.20;;;;;;5067879;28;20055;-80
2023/11/06 07:18:56;;;;;;;9.73;3.90;;;409.90;2355.20;;;;;;5047929;28;20053;-79
2023/11/06 07:21:23;;;;;;;12.48;4.55;;;409.90;2355.20;;;;;;5041883;28;20112;-79
2023/11/06 07:23:49;;;;;;;12.00;4.50;;;410.00;2355.20;;;;;;5046060;28;20445;-79
2023/11/06 07:26:15;;;;;;;9.00;4.53;;;410.00;2355.20;;;;;;5035499;28;20045;-82
2023/11/06 07:28:41;;;;;;;12.35;4.78;;;410.00;2355.20;;;;;;5048190;28;20500;-79
2023/11/06 07:31:07;;;;;;;7.72;3.28;;;410.00;2355.20;;;;;;5053821;28;20020;-79
2023/11/06 07:33:33;;;;;;;10.27;3.28;;;410.10;2355.20;;;;;;5044222;28;20743;-80
2023/11/06 07:35:59;;;;;;;8.27;3.17;;;410.20;2355.20;;;;;;5058004;28;20029;-79
2023/11/06 07:38:24;;;;;;;10.65;2.92;;;410.20;2355.20;;;;;;5047291;28;20495;-80
2023/11/06 07:40:50;;;;;;;9.27;3.00;;;410.20;2355.20;;;;;;5049970;28;20473;-81
2023/11/06 07:43:16;;;;;;;9.55;2.90;;;410.30;2355.20;;;;;;5062221;28;20028;-80
2023/11/06 07:45:42;;;;;;;10.18;3.50;;;410.40;2355.20;;;;;;5064283;28;20111;-81
2023/11/06 07:48:08;;;;;;;8.18;4.20;;;410.50;2355.20;;;;;;5046703;28;20260;-80
2023/11/06 07:50:34;;;;;;;10.63;4.47;;;410.50;2355.20;;;;;;5063055;28;20021;-80
2023/11/06 07:53:03;;;;;;;9.82;4.18;;;435.30;2355.20;;;;;;5070165;28;20390;-80
2023/11/06 07:55:29;;;;;;;11.13;3.88;;;435.40;2355.20;;;;;;5046986;28;20037;-78
2023/11/06 07:57:55;;;;;;;8.73;3.45;;;435.50;2355.20;;;;;;5060807;28;20036;-81
2023/11/06 08:00:20;;;;;;;12.00;3.75;;;435.50;2355.20;;;;;;5046023;28;20082;-79
2023/11/06 08:02:46;;;;;;;12.82;4.47;;;435.50;2355.20;;;;;;5059683;28;20470;-80
2023/11/06 08:05:12;;;;;;;9.30;3.85;;;435.50;2355.20;;;;;;5057765;28;20025;-78
2023/11/06 08:07:39;;;;;;;14.15;4.28;;;435.50;2355.20;;;;;;5065603;28;20938;-80
2023/11/06 08:10:09;;;;;;;11.45;4.30;;;435.30;2355.20;;;;;;5046045;28;20025;-79
2023/11/06 08:12:35;;;;;;;8.13;3.88;;;435.30;2355.20;;;;;;5045347;28;20426;-79
2023/11/06 08:15:02;;;;;;;7.40;4.70;;;435.30;2355.20;;;;;;5051658;28;20052;-80
2023/11/06 08:17:28;;;;;;;9.27;3.35;;;435.30;2355.20;;;;;;5050988;28;20040;-79
2023/11/06 08:19:53;;;;;;;10.07;3.60;;;435.30;2355.20;;;;;;5044100;28;20074;-79
2023/11/06 08:22:21;;;;;;;15.02;3.53;;;435.50;2355.20;;;;;;5065037;28;20020;-79
2023/11/06 08:24:48;;;;;;;10.32;3.95;;;435.50;2355.20;;;;;;5062711;28;20013;-78
2023/11/06 08:27:14;;;;;;;11.52;3.13;;;435.50;2355.20;;;;;;5047755;28;20024;-76
2023/11/06 08:29:42;;;;;;;11.70;4.50;;;435.60;2355.20;;;;;;5067834;28;20102;-75
2023/11/06 08:32:10;;;;;;;9.98;3.58;;;435.50;2355.20;;;;;;5071727;28;20054;-76
2023/11/06 08:34:39;;;;;;;10.85;4.53;;;435.60;2355.20;;;;;;5051797;28;20032;-76
2023/11/06 08:37:05;;;;;;;16.05;4.47;;;435.60;2355.20;;;;;;5062656;28;20060;-78
2023/11/06 08:39:31;;;;;;;8.65;3.60;;;435.80;2355.20;;;;;;5068914;28;20601;-77
2023/11/06 08:41:57;;;;;;;12.02;3.85;;;435.90;2355.20;;;;;;5061725;28;20025;-75
2023/11/06 08:44:23;;;;;;;6.65;3.20;;;435.90;2355.20;;;;;;5062039;28;20059;-76
2023/11/06 08:46:49;;;;;;;11.38;2.97;;;435.90;2355.20;;;;;;5061209;28;20017;-75
2023/11/06 08:49:15;;;;;;;7.85;3.25;;;435.80;2355.20;;;;;;5064110;28;20036;-78
2023/11/06 08:51:40;;;;;;;7.35;3.58;;;435.80;2355.20;;;;;;5065270;28;20382;-77
2023/11/06 08:54:06;;;;;;;15.27;4.10;;;435.70;2355.20;;;;;;5058007;28;20031;-78
2023/11/06 08:56:32;;;;;;;10.48;4.00;;;435.70;2355.20;;;;;;5050716;28;20525;-80
2023/11/06 08:58:59;;;;;;;10.68;3.47;;;435.60;2355.20;;;;;;5059246;28;20036;-78
2023/11/06 09:01:25;;;;;;;11.70;3.72;;;435.60;2355.20;;;;;;5066860;28;20455;-76
2023/11/06 09:03:53;;;;;;;9.93;3.08;;;435.60;2355.20;;;;;;5042262;28;20493;-80
2023/11/06 09:06:19;;;;;;;11.02;3.33;;;435.60;2355.20;;;;;;5059439;28;20025;-76
2023/11/06 09:08:45;;;;;;;13.10;3.00;;;435.60;2355.20;;;;;;5043143;28;20028;-76
2023/11/06 09:11:10;;;;;;;14.60;3.55;;;435.60;2355.20;;;;;;5062134;28;20534;-76
2023/11/06 09:13:36;;;;;;;10.70;2.92;;;435.70;2355.20;;;;;;5054385;28;20490;-77
2023/11/06 09:16:05;;;;;;;11.68;3.58;;;435.70;2355.20;;;;;;5069182;28;20031;-77
2023/11/06 09:18:31;;;;;;;9.10;3.03;;;435.70;2355.20;;;;;;5041807;28;20049;-78
2023/11/06 09:20:57;;;;;;;10.05;2.78;;;435.80;2355.20;;;;;;5045683;28;20025;-77
2023/11/06 09:23:23;;;;;;;8.32;2.85;;;435.80;2355.20;;;;;;5061339;28;20109;-78
2023/11/06 09:25:49;;;;;;;15.10;3.53;;;435.80;2355.20;;;;;;5060739;28;20485;-77
2023/11/06 09:28:14;;;;;;;7.82;3.33;;;435.70;2355.20;;;;;;5041300;28;20383;-76
2023/11/06 09:30:44;;;;;;;9.15;3.30;;;435.70;2355.20;;;;;;5048467;28;20077;-80
2023/11/06 09:33:11;;;;;;;8.60;2.83;;;435.70;2355.20;;;;;;5060145;28;20029;-77
2023/11/06 09:35:37;;;;;;;12.00;3.10;;;435.70;2355.20;;;;;;5067642;28;20024;-77
2023/11/06 09:38:03;;;;;;;8.68;3.25;;;436.10;2355.20;;;;;;5069280;28;20505;-77
2023/11/06 09:40:29;;;;;;;9.63;3.25;;;461.20;2380.80;;;;;;5067536;28;20390;-78
2023/11/06 09:42:55;;;;;;;14.95;3.40;;;461.20;2380.80;;;;;;5083784;28;20025;-77
2023/11/06 09:45:22;;;;;;;10.02;3.30;;;461.20;2380.80;;;;;;5074287;28;20035;-79
2023/11/06 09:47:50;;;;;;;8.85;3.20;;;461.40;2380.80;;;;;;5048170;28;20028;-77
2023/11/06 09:50:23;;;;;;;11.52;2.80;;;461.20;2380.80;;;;;;5040826;28;20028;-80
2023/11/06 09:52:53;;;;;;;8.25;3.47;;;461.10;2380.80;;;;;;5057347;28;20111;-78
2023/11/06 09:55:20;;;;;;;9.32;2.97;;;461.00;2380.80;;;;;;5047559;28;20056;-78
2023/11/06 09:57:50;;;;;;;8.98;2.95;;;460.90;2380.80;;;;;;5057650;28;20032;-77
2023/11/06 10:00:16;;;;;;;7.32;2.80;;;460.80;2380.80;;;;;;5060981;28;20020;-77
2023/11/06 10:02:48;;;;;;;11.38;2.85;;;460.80;2380.80;;;;;;5063007;28;20103;-78
2023/11/06 10:05:16;;;;;;;8.20;3.22;;;436.10;2355.20;;;;;;5065001;28;20013;-77
2023/11/06 10:07:45;;;;;;;9.40;3.15;;;436.00;2355.20;;;;;;5041951;28;20021;-77
2023/11/06 10:10:13;;;;;;;7.40;3.15;;;436.10;2355.20;;;;;;5056237;28;20441;-77
2023/11/06 10:12:38;;;;;;;8.00;2.72;;;460.80;2380.80;;;;;;5062158;28;20028;-77
2023/11/06 10:15:07;;;;;;;8.57;2.45;;;460.80;2380.80;;;;;;5034409;28;20029;-79
2023/11/06 10:17:34;;;;;;;7.38;2.92;;;460.80;2380.80;;;;;;5059996;28;20106;-78
2023/11/06 10:20:06;;;;;;;9.40;2.95;;;460.90;2380.80;;;;;;5055532;28;20529;-76
2023/11/06 10:22:35;;;;;;;12.85;3.47;;;461.00;2380.80;;;;;;5045345;28;20119;-78
2023/11/06 10:25:01;;;;;;;11.95;2.95;;;461.40;2380.80;;;;;;5059884;28;20066;-78
2023/11/06 10:27:31;;;;;;;17.42;4.35;;;486.80;2380.80;;;;;;5066154;28;20025;-77
2023/11/06 10:30:05;;;;;;;12.43;3.17;;;486.80;2380.80;;;;;;5058946;28;20062;-78
2023/11/06 10:32:31;;;;;;;12.10;3.00;;;486.50;2380.80;;;;;;5055815;28;20032;-77
2023/11/06 10:35:14;;;;;;;12.00;3.30;;;486.40;2380.80;;;;;;5059447;28;20523;-77
2023/11/06 10:37:45;;;;;;;11.95;2.83;;;486.40;2380.80;;;;;;5061955;28;20047;-77
2023/11/06 10:40:18;;;;;;;6.38;2.50;;;486.40;2380.80;;;;;;5062558;28;20371;-79
2023/11/06 10:42:51;;;;;;;6.60;2.90;;;486.40;2380.80;;;;;;5044367;28;20020;-76
2023/11/06 10:45:18;;;;;;;7.20;3.17;;;486.50;2380.80;;;;;;5067729;28;20021;-77
2023/11/06 10:47:52;;;;;;;8.80;3.22;;;487.20;2380.80;;;;;;5060317;28;20028;-77
2023/11/06 10:50:25;;;;;;;12.23;4.00;;;512.60;2380.80;;;;;;5063688;28;20036;-79
2023/11/06 10:52:59;;;;;;;10.15;3.03;;;512.50;2380.80;;;;;;5053090;28;20051;-78
2023/11/06 10:55:25;;;;;;;11.07;3.05;;;512.40;2380.80;;;;;;5057556;28;20124;-76
2023/11/06 10:57:52;;;;;;;6.45;2.55;;;512.90;2380.80;;;;;;5040158;28;20025;-79
2023/11/06 11:00:20;;;;;;;7.93;2.25;;;512.30;2380.80;;;;;;5039198;28;20509;-79
2023/11/06 11:02:54;;;;;;;10.75;3.55;;;512.20;2380.80;;;;;;5040495;28;20128;-81
2023/11/06 11:05:29;;;;;;;9.02;2.65;;;512.50;2380.80;;;;;;5064953;28;20017;-78
2023/11/06 11:07:59;;;;;;;6.78;2.15;;;537.80;2406.40;;;;;;5041230;28;20032;-78
2023/11/06 11:10:29;;;;;;;8.77;2.53;;;537.90;2406.40;;;;;;5060804;28;20028;-78
2023/11/06 11:13:02;;;;;;;5.63;2.40;;;538.00;2406.40;;;;;;5053717;28;20462;-79
2023/11/06 11:15:30;;;;;;;5.93;2.17;;;;;;;;;;5070779;28;20025;-78
2023/11/06 11:18:05;;;;;;;8.27;2.35;;;538.50;2406.40;;;;;;5046807;28;20499;-78
2023/11/06 11:20:50;;;;;;;5.70;2.50;;;538.00;2406.40;;;;;;5068910;28;20092;-79
2023/11/06 11:23:18;;;;;;;6.93;2.60;;;512.90;2380.80;;;;;;5068366;28;20371;-79
2023/11/06 11:25:58;;;;;;;14.63;2.75;;;512.80;2380.80;;;;;;5043963;28;20520;-78
2023/11/06 11:28:25;;;;;;;5.53;2.47;;;512.70;2380.80;;;;;;5064333;28;20029;-78
2023/11/06 11:30:52;;;;;;;9.52;2.38;;;512.60;2380.80;;;;;;5056358;28;20055;-79
2023/11/06 11:33:57;;;;;;;7.63;2.40;;;537.70;2406.40;;;;;;5059240;28;20029;-79
2023/11/06 11:36:42;;;;;;;6.93;2.03;;;538.30;2406.40;;;;;;4983973;28;20037;-80
2023/11/06 11:39:13;;;;;;;3.72;2.17;;;538.20;2406.40;;;;;;4986408;28;20505;-79
2023/11/06 11:42:21;;;;;;;11.55;2.97;;;538.10;2304.00;;;;;;4973013;28;20501;-78
2023/11/06 11:44:54;;;;;;;3.60;1.70;;;512.70;2329.60;;;;;;4978676;28;20030;-77
2023/11/06 11:47:20;;;;;;;5.10;1.77;;;512.00;2380.80;;;;;;4971473;28;20129;-78
2023/11/06 11:49:47;;;;;;;9.40;2.95;;;487.30;2380.80;;;;;;4979820;28;20524;-79
2023/11/06 11:52:25;;;;;;;4.15;2.40;;;512.20;2380.80;;;;;;4983374;28;20034;-80
2023/11/06 11:54:53;;;;;;;7.10;2.40;;;512.20;2380.80;;;;;;4980127;28;20027;-80
2023/11/06 11:57:18;;;;;;;8.57;2.20;;;512.00;2380.80;;;;;;4961141;28;20035;-78
2023/11/06 11:59:47;;;;;;;6.53;2.25;;;487.20;2380.80;;;;;;4968547;28;20031;-79
2023/11/06 12:02:36;;;;;;;8.63;2.35;;;487.00;2380.80;;;;;;4982242;28;20022;-84
2023/11/06 12:05:17;;;;;;;5.55;2.05;;;487.20;2380.80;;;;;;4986998;28;20034;-82
2023/11/06 12:07:43;;;;;;;3.88;1.52;;;487.30;2380.80;;;;;;4977554;28;20070;-81
2023/11/06 12:10:10;;;;;;;4.43;1.80;;;512.10;2329.60;;;;;;4970041;28;20046;-82
2023/11/06 12:12:39;;;;;;;8.02;1.85;;;512.50;2304.00;;;;;;4997250;28;20033;-83